Terminal Aerodrome Forecast
Issued by NWS Wilmington, OH

Home | Current Version | Previous Version | Text Only | Print | Product List | Glossary On
Versions: 1 2 3 4 5 6 7 8 9 10 11 12 13 14 15 16
000
FTUS41 KILN 271746
TAFILN
TAF
KILN 271746Z 2718/2818 22015G23KT P6SM VCSH SCT025 OVC050
     FM271830 25020G27KT P6SM BKN035
     FM280000 27012KT P6SM FEW035
     FM280200 25007KT P6SM FEW150
     FM280700 15003KT P6SM BKN170
     FM281400 16008KT P6SM BKN090=

USA.gov is the U.S. government's official web portal to all federal, state and local government web resources and services.